sensor_id;sensor_type;location;lat;lon;timestamp;pressure;altitude;pressure_sealevel;temperature;humidity
42003;BME280;27693;50.506;30.832;2023-01-24T01:52:09;101802.27;;;-1.98;94.26
42003;BME280;27693;50.506;30.832;2023-01-24T01:53:13;101802.41;;;-1.95;94.17
42003;BME280;27693;50.506;30.832;2023-01-24T01:54:22;101800.89;;;-1.90;94.16
42003;BME280;27693;50.506;30.832;2023-01-24T01:55:30;101797.59;;;-1.87;93.91
42003;BME280;27693;50.506;30.832;2023-01-24T01:56:52;101800.45;;;-1.80;93.70
42003;BME280;27693;50.506;30.832;2023-01-24T01:57:54;101792.90;;;-1.77;93.34
42003;BME280;27693;50.506;30.832;2023-01-24T01:58:59;101801.59;;;-1.71;93.10
42003;BME280;27693;50.506;30.832;2023-01-24T02:00:09;101798.18;;;-1.72;93.07
42003;BME280;27693;50.506;30.832;2023-01-24T02:01:11;101791.28;;;-1.74;92.79
42003;BME280;27693;50.506;30.832;2023-01-24T02:02:15;101793.30;;;-1.66;92.71
42003;BME280;27693;50.506;30.832;2023-01-24T02:03:22;101799.53;;;-1.59;92.63
42003;BME280;27693;50.506;30.832;2023-01-24T02:04:53;101789.00;;;-1.44;92.19
42003;BME280;27693;50.506;30.832;2023-01-24T02:05:52;101793.94;;;-1.49;92.00
42003;BME280;27693;50.506;30.832;2023-01-24T02:07:11;101795.81;;;-1.45;91.70
42003;BME280;27693;50.506;30.832;2023-01-24T02:08:17;101793.17;;;-1.46;91.42
42003;BME280;27693;50.506;30.832;2023-01-24T02:09:22;101799.39;;;-1.39;91.33
42003;BME280;27693;50.506;30.832;2023-01-24T02:10:26;101800.42;;;-1.34;90.96
42003;BME280;27693;50.506;30.832;2023-01-24T02:11:31;101803.16;;;-1.52;90.64
42003;BME280;27693;50.506;30.832;2023-01-24T02:12:42;101800.44;;;-1.57;90.85
42003;BME280;27693;50.506;30.832;2023-01-24T02:13:46;101788.73;;;-1.52;90.96
42003;BME280;27693;50.506;30.832;2023-01-24T02:14:51;101792.31;;;-1.47;90.99
42003;BME280;27693;50.506;30.832;2023-01-24T02:16:15;101789.05;;;-1.42;91.00
42003;BME280;27693;50.506;30.832;2023-01-24T02:17:19;101795.44;;;-1.31;90.72
42003;BME280;27693;50.506;30.832;2023-01-24T02:18:22;101798.09;;;-1.28;90.53
42003;BME280;27693;50.506;30.832;2023-01-24T02:21:14;101793.37;;;-1.17;90.28
42003;BME280;27693;50.506;30.832;2023-01-24T02:22:43;101793.62;;;-1.34;89.72
42003;BME280;27693;50.506;30.832;2023-01-24T02:25:08;101797.13;;;-1.07;90.16
42003;BME280;27693;50.506;30.832;2023-01-24T02:26:25;101799.29;;;-0.94;90.73
42003;BME280;27693;50.506;30.832;2023-01-24T02:27:27;101799.29;;;-0.94;90.65
42003;BME280;27693;50.506;30.832;2023-01-24T02:28:29;101795.20;;;-0.89;90.81
42003;BME280;27693;50.506;30.832;2023-01-24T02:29:32;101798.08;;;-0.79;91.08
42003;BME280;27693;50.506;30.832;2023-01-24T02:30:36;101796.55;;;-0.74;90.62
42003;BME280;27693;50.506;30.832;2023-01-24T02:31:59;101796.55;;;-0.74;90.62
42003;BME280;27693;50.506;30.832;2023-01-24T02:33:17;101799.09;;;-0.74;90.37
42003;BME280;27693;50.506;30.832;2023-01-24T02:34:17;101801.82;;;-0.70;90.16
42003;BME280;27693;50.506;30.832;2023-01-24T02:35:28;101798.29;;;-0.73;89.90
42003;BME280;27693;50.506;30.832;2023-01-24T02:36:33;101799.22;;;-0.71;90.15
42003;BME280;27693;50.506;30.832;2023-01-24T02:37:36;101805.02;;;-0.75;89.75
42003;BME280;27693;50.506;30.832;2023-01-24T02:38:42;101794.11;;;-0.71;89.75
42003;BME280;27693;50.506;30.832;2023-01-24T02:40:57;101798.90;;;-0.55;90.42
42003;BME280;27693;50.506;30.832;2023-01-24T02:42:06;101802.19;;;-0.59;89.51
42003;BME280;27693;50.506;30.832;2023-01-24T02:43:11;101797.84;;;-0.61;89.24
42003;BME280;27693;50.506;30.832;2023-01-24T02:44:18;101794.02;;;-0.49;89.37
42003;BME280;27693;50.506;30.832;2023-01-24T02:45:26;101795.64;;;-0.51;89.24
42003;BME280;27693;50.506;30.832;2023-01-24T02:46:30;101797.19;;;-0.56;89.09
42003;BME280;27693;50.506;30.832;2023-01-24T02:47:35;101802.84;;;-0.65;88.79
42003;BME280;27693;50.506;30.832;2023-01-24T02:48:38;101804.08;;;-0.79;88.30
42003;BME280;27693;50.506;30.832;2023-01-24T03:57:21;101788.16;;;-1.67;89.05
42003;BME280;27693;50.506;30.832;2023-01-24T03:58:26;101795.10;;;-1.63;89.63
42003;BME280;27693;50.506;30.832;2023-01-24T03:59:29;101781.58;;;-1.61;89.64
42003;BME280;27693;50.506;30.832;2023-01-24T04:00:32;101782.69;;;-1.54;89.53
42003;BME280;27693;50.506;30.832;2023-01-24T04:01:35;101782.69;;;-1.54;89.53
42003;BME280;27693;50.506;30.832;2023-01-24T04:02:42;101779.51;;;-1.48;89.36
42003;BME280;27693;50.506;30.832;2023-01-24T04:03:44;101781.75;;;-1.56;88.96
42003;BME280;27693;50.506;30.832;2023-01-24T04:04:47;101784.53;;;-1.50;89.74
42003;BME280;27693;50.506;30.832;2023-01-24T04:06:09;101773.64;;;-1.46;89.87
42003;BME280;27693;50.506;30.832;2023-01-24T04:07:11;101787.89;;;-1.51;89.81
42003;BME280;27693;50.506;30.832;2023-01-24T04:08:16;101785.47;;;-1.48;90.23
42003;BME280;27693;50.506;30.832;2023-01-24T04:09:19;101778.92;;;-1.41;90.55
42003;BME280;27693;50.506;30.832;2023-01-24T04:10:23;101773.73;;;-1.42;90.07
42003;BME280;27693;50.506;30.832;2023-01-24T04:11:26;101785.59;;;-1.45;90.16
42003;BME280;27693;50.506;30.832;2023-01-24T04:12:30;101783.72;;;-1.49;90.17
42003;BME280;27693;50.506;30.832;2023-01-24T04:13:34;101784.70;;;-1.45;90.35
42003;BME280;27693;50.506;30.832;2023-01-24T04:14:36;101779.19;;;-1.33;90.89
42003;BME280;27693;50.506;30.832;2023-01-24T04:15:40;101785.10;;;-1.34;90.45
42003;BME280;27693;50.506;30.832;2023-01-24T04:16:50;101785.59;;;-1.45;89.96
42003;BME280;27693;50.506;30.832;2023-01-24T04:18:01;101788.95;;;-1.46;90.12
42003;BME280;27693;50.506;30.832;2023-01-24T04:19:04;101791.92;;;-1.57;90.42
42003;BME280;27693;50.506;30.832;2023-01-24T04:20:08;101783.63;;;-1.52;90.89
42003;BME280;27693;50.506;30.832;2023-01-24T04:21:12;101793.40;;;-1.40;91.40
42003;BME280;27693;50.506;30.832;2023-01-24T04:22:16;101785.32;;;-1.28;91.59
42003;BME280;27693;50.506;30.832;2023-01-24T04:23:19;101776.42;;;-1.15;92.00
42003;BME280;27693;50.506;30.832;2023-01-24T04:24:22;101789.79;;;-0.98;92.13
42003;BME280;27693;50.506;30.832;2023-01-24T04:25:24;101780.80;;;-0.87;91.91
42003;BME280;27693;50.506;30.832;2023-01-24T04:26:27;101788.06;;;-0.73;92.00
42003;BME280;27693;50.506;30.832;2023-01-24T04:27:30;101780.44;;;-0.72;91.00
42003;BME280;27693;50.506;30.832;2023-01-24T04:28:40;101792.36;;;-0.72;90.10
42003;BME280;27693;50.506;30.832;2023-01-24T04:29:42;101787.25;;;-0.72;89.73
42003;BME280;27693;50.506;30.832;2023-01-24T04:30:44;101790.78;;;-0.69;89.68
42003;BME280;27693;50.506;30.832;2023-01-24T04:31:48;101789.40;;;-0.59;90.18
42003;BME280;27693;50.506;30.832;2023-01-24T04:32:52;101788.91;;;-0.49;90.24
42003;BME280;27693;50.506;30.832;2023-01-24T04:34:00;101799.41;;;-0.39;90.18
42003;BME280;27693;50.506;30.832;2023-01-24T04:35:05;101797.67;;;-0.40;89.31
42003;BME280;27693;50.506;30.832;2023-01-24T04:36:13;101792.47;;;-0.43;88.81
42003;BME280;27693;50.506;30.832;2023-01-24T04:37:15;101800.44;;;-0.60;87.76
42003;BME280;27693;50.506;30.832;2023-01-24T04:38:18;101802.19;;;-0.59;88.21
42003;BME280;27693;50.506;30.832;2023-01-24T04:39:31;101802.19;;;-0.59;87.99
42003;BME280;27693;50.506;30.832;2023-01-24T04:40:39;101799.78;;;-0.54;88.35
42003;BME280;27693;50.506;30.832;2023-01-24T04:41:42;101801.21;;;-0.62;87.67
42003;BME280;27693;50.506;30.832;2023-01-24T04:42:44;101801.21;;;-0.62;87.67
42003;BME280;27693;50.506;30.832;2023-01-24T04:43:47;101806.27;;;-0.90;87.50
42003;BME280;27693;50.506;30.832;2023-01-24T04:44:49;101808.23;;;-1.07;87.33
42003;BME280;27693;50.506;30.832;2023-01-24T04:45:56;101807.89;;;-1.16;87.52
42003;BME280;27693;50.506;30.832;2023-01-24T04:47:00;101810.70;;;-1.08;88.62
42003;BME280;27693;50.506;30.832;2023-01-24T04:48:06;101805.08;;;-1.00;89.09
42003;BME280;27693;50.506;30.832;2023-01-24T04:49:09;101812.06;;;-0.94;89.22
42003;BME280;27693;50.506;30.832;2023-01-24T04:50:15;101808.87;;;-1.13;88.22
42003;BME280;27693;50.506;30.832;2023-01-24T04:51:17;101804.39;;;-1.18;88.63
42003;BME280;27693;50.506;30.832;2023-01-24T04:52:20;101806.78;;;-1.23;88.71
42003;BME280;27693;50.506;30.832;2023-01-24T04:53:27;101811.08;;;-1.22;89.29
42003;BME280;27693;50.506;30.832;2023-01-24T04:54:32;101814.56;;;-1.20;89.29
42003;BME280;27693;50.506;30.832;2023-01-24T04:55:35;101824.66;;;-1.23;89.35
42003;BME280;27693;50.506;30.832;2023-01-24T04:56:37;101824.78;;;-1.20;89.60
42003;BME280;27693;50.506;30.832;2023-01-24T04:57:41;101818.65;;;-1.25;89.37
42003;BME280;27693;50.506;30.832;2023-01-24T04:58:45;101816.23;;;-1.45;89.26
42003;BME280;27693;50.506;30.832;2023-01-24T04:59:47;101819.91;;;-1.36;90.21
42003;BME280;27693;50.506;30.832;2023-01-24T05:00:52;101816.28;;;-1.43;89.68
42003;BME280;27693;50.506;30.832;2023-01-24T05:01:55;101823.54;;;-1.54;89.64
42003;BME280;27693;50.506;30.832;2023-01-24T05:03:00;101826.67;;;-1.61;89.83
42003;BME280;27693;50.506;30.832;2023-01-24T05:04:03;101827.01;;;-1.74;90.08
42003;BME280;27693;50.506;30.832;2023-01-24T05:05:06;101829.20;;;-1.84;90.16
42003;BME280;27693;50.506;30.832;2023-01-24T05:06:09;101825.03;;;-1.82;90.91
42003;BME280;27693;50.506;30.832;2023-01-24T05:07:11;101821.20;;;-1.70;91.60
42003;BME280;27693;50.506;30.832;2023-01-24T05:08:14;101822.37;;;-1.62;91.60
42003;BME280;27693;50.506;30.832;2023-01-24T05:09:17;101821.86;;;-1.76;91.28
42003;BME280;27693;50.506;30.832;2023-01-24T05:10:25;101822.01;;;-1.71;91.32
42003;BME280;27693;50.506;30.832;2023-01-24T05:11:27;101824.92;;;-1.62;91.81
42003;BME280;27693;50.506;30.832;2023-01-24T05:12:31;101818.53;;;-1.51;92.03
42003;BME280;27693;50.506;30.832;2023-01-24T05:13:38;101819.82;;;-1.39;91.81
42003;BME280;27693;50.506;30.832;2023-01-24T05:14:40;101824.47;;;-1.52;90.49
42003;BME280;27693;50.506;30.832;2023-01-24T05:15:49;101826.31;;;-1.48;91.21
42003;BME280;27693;50.506;30.832;2023-01-24T05:16:52;101826.19;;;-1.51;90.64
42003;BME280;27693;50.506;30.832;2023-01-24T05:17:54;101824.70;;;-1.46;91.06
42003;BME280;27693;50.506;30.832;2023-01-24T05:18:59;101823.19;;;-1.40;90.96
42003;BME280;27693;50.506;30.832;2023-01-24T05:20:02;101822.55;;;-1.35;90.82
42003;BME280;27693;50.506;30.832;2023-01-24T05:22:10;101825.94;;;-1.11;90.90
42003;BME280;27693;50.506;30.832;2023-01-24T05:23:14;101816.75;;;-1.06;90.59
42003;BME280;27693;50.506;30.832;2023-01-24T05:24:18;101827.44;;;-0.92;90.75
42003;BME280;27693;50.506;30.832;2023-01-24T05:25:21;101828.80;;;-0.78;90.80
42003;BME280;27693;50.506;30.832;2023-01-24T05:26:26;101820.53;;;-0.71;90.09
42003;BME280;27693;50.506;30.832;2023-01-24T05:27:28;101820.00;;;-0.62;90.03
42003;BME280;27693;50.506;30.832;2023-01-24T05:28:33;101829.38;;;-0.61;88.90
42003;BME280;27693;50.506;30.832;2023-01-24T05:29:36;101830.16;;;-0.88;87.50
42003;BME280;27693;50.506;30.832;2023-01-24T05:30:39;101828.28;;;-0.93;87.00
42003;BME280;27693;50.506;30.832;2023-01-24T05:31:43;101825.12;;;-0.86;86.88
42003;BME280;27693;50.506;30.832;2023-01-24T05:32:45;101825.43;;;-0.77;86.56
42003;BME280;27693;50.506;30.832;2023-01-24T05:33:47;101821.81;;;-0.84;85.96
42003;BME280;27693;50.506;30.832;2023-01-24T05:34:50;101830.28;;;-0.85;85.64
42003;BME280;27693;50.506;30.832;2023-01-24T05:36:07;101828.75;;;-0.79;85.60
42003;BME280;27693;50.506;30.832;2023-01-24T05:37:10;101829.64;;;-0.79;85.14
42003;BME280;27693;50.506;30.832;2023-01-24T05:38:15;101822.62;;;-0.85;84.95
42003;BME280;27693;50.506;30.832;2023-01-24T05:39:17;101827.01;;;-0.81;85.17
42003;BME280;27693;50.506;30.832;2023-01-24T05:40:20;101811.75;;;-0.79;84.91
42003;BME280;27693;50.506;30.832;2023-01-24T05:41:23;101828.59;;;-0.84;84.67
42003;BME280;27693;50.506;30.832;2023-01-24T05:42:26;101813.09;;;-0.89;84.73
42003;BME280;27693;50.506;30.832;2023-01-24T05:43:31;101827.56;;;-0.89;84.65
42003;BME280;27693;50.506;30.832;2023-01-24T05:44:33;101822.70;;;-0.82;84.89
42003;BME280;27693;50.506;30.832;2023-01-24T05:45:35;101831.43;;;-0.76;84.86
42003;BME280;27693;50.506;30.832;2023-01-24T05:46:39;101829.64;;;-0.79;84.70
42003;BME280;27693;50.506;30.832;2023-01-24T05:47:50;101831.22;;;-0.83;84.64
42003;BME280;27693;50.506;30.832;2023-01-24T05:48:53;101830.16;;;-0.88;84.75
42003;BME280;27693;50.506;30.832;2023-01-24T05:49:57;101823.27;;;-0.90;84.71
42003;BME280;27693;50.506;30.832;2023-01-24T05:51:05;101820.66;;;-0.92;84.79
42003;BME280;27693;50.506;30.832;2023-01-24T05:52:08;101831.27;;;-1.05;84.78
42003;BME280;27693;50.506;30.832;2023-01-24T05:53:21;101824.73;;;-1.21;85.02
42003;BME280;27693;50.506;30.832;2023-01-24T05:54:23;101833.75;;;-1.31;85.38
42003;BME280;27693;50.506;30.832;2023-01-24T05:55:33;101826.13;;;-1.30;85.90
42003;BME280;27693;50.506;30.832;2023-01-24T05:56:36;101835.94;;;-1.18;86.26
42003;BME280;27693;50.506;30.832;2023-01-24T05:57:38;101834.67;;;-1.05;86.39
42003;BME280;27693;50.506;30.832;2023-01-24T05:58:49;101838.98;;;-1.04;86.01
42003;BME280;27693;50.506;30.832;2023-01-24T05:59:53;101835.22;;;-1.14;85.90
42003;BME280;27693;50.506;30.832;2023-01-24T06:00:55;101845.56;;;-1.10;85.94
42003;BME280;27693;50.506;30.832;2023-01-24T06:02:15;101846.05;;;-0.97;86.33
42003;BME280;27693;50.506;30.832;2023-01-24T06:03:19;101838.16;;;-0.78;86.82
42003;BME280;27693;50.506;30.832;2023-01-24T06:04:21;101839.39;;;-0.67;87.18
42003;BME280;27693;50.506;30.832;2023-01-24T06:05:25;101839.60;;;-0.61;86.88
42003;BME280;27693;50.506;30.832;2023-01-24T06:06:27;101842.32;;;-0.56;86.76
42003;BME280;27693;50.506;30.832;2023-01-24T06:07:30;101846.16;;;-0.69;85.96
42003;BME280;27693;50.506;30.832;2023-01-24T06:08:33;101844.63;;;-0.64;86.21
42003;BME280;27693;50.506;30.832;2023-01-24T06:09:36;101845.69;;;-0.57;86.19
42003;BME280;27693;50.506;30.832;2023-01-24T06:10:39;101839.77;;;-0.56;85.93
42003;BME280;27693;50.506;30.832;2023-01-24T06:11:45;101844.84;;;-0.58;86.00
42003;BME280;27693;50.506;30.832;2023-01-24T06:12:50;101838.30;;;-0.50;86.08
42003;BME280;27693;50.506;30.832;2023-01-24T06:13:54;101842.44;;;-0.53;85.40
42003;BME280;27693;50.506;30.832;2023-01-24T06:14:59;101849.19;;;-0.55;85.50
42003;BME280;27693;50.506;30.832;2023-01-24T06:16:04;101834.56;;;-0.59;85.23
42003;BME280;27693;50.506;30.832;2023-01-24T06:17:08;101841.27;;;-0.63;85.31
42003;BME280;27693;50.506;30.832;2023-01-24T06:18:13;101835.17;;;-0.67;85.06
42003;BME280;27693;50.506;30.832;2023-01-24T06:19:16;101845.71;;;-0.82;84.88
42003;BME280;27693;50.506;30.832;2023-01-24T06:20:19;101845.41;;;-0.91;85.25
42003;BME280;27693;50.506;30.832;2023-01-24T06:21:53;101840.84;;;-1.00;85.51
42003;BME280;27693;50.506;30.832;2023-01-24T06:23:03;101843.45;;;-0.98;85.95
42003;BME280;27693;50.506;30.832;2023-01-24T06:25:24;101842.17;;;-0.85;86.66
42003;BME280;27693;50.506;30.832;2023-01-24T06:26:27;101844.52;;;-0.91;86.07
42003;BME280;27693;50.506;30.832;2023-01-24T06:27:30;101841.20;;;-0.89;86.42
42003;BME280;27693;50.506;30.832;2023-01-24T06:28:33;101847.63;;;-0.76;86.73
42003;BME280;27693;50.506;30.832;2023-01-24T06:29:35;101844.42;;;-0.70;86.29
42003;BME280;27693;50.506;30.832;2023-01-24T06:30:39;101846.16;;;-0.69;86.33
42003;BME280;27693;50.506;30.832;2023-01-24T06:33:06;101838.64;;;-0.89;85.96
42003;BME280;27693;50.506;30.832;2023-01-24T06:38:00;101836.25;;;-0.84;86.65
42003;BME280;27693;50.506;30.832;2023-01-24T06:39:03;101835.40;;;-0.85;86.92
42003;BME280;27693;50.506;30.832;2023-01-24T06:40:10;101842.04;;;-0.90;86.64
42003;BME280;27693;50.506;30.832;2023-01-24T06:41:16;101845.58;;;-0.86;86.92
42003;BME280;27693;50.506;30.832;2023-01-24T06:42:20;101843.11;;;-0.83;86.85
42003;BME280;27693;50.506;30.832;2023-01-24T06:43:24;101843.28;;;-0.78;86.74
42003;BME280;27693;50.506;30.832;2023-01-24T06:44:27;101840.93;;;-0.72;86.85
42003;BME280;27693;50.506;30.832;2023-01-24T06:45:29;101840.49;;;-0.60;87.04
42003;BME280;27693;50.506;30.832;2023-01-24T06:46:31;101840.37;;;-0.63;86.49
42003;BME280;27693;50.506;30.832;2023-01-24T06:47:34;101839.81;;;-0.55;86.71
42003;BME280;27693;50.506;30.832;2023-01-24T06:48:36;101845.16;;;-0.49;86.80
42003;BME280;27693;50.506;30.832;2023-01-24T06:49:39;101844.31;;;-0.47;86.54
42003;BME280;27693;50.506;30.832;2023-01-24T06:50:41;101840.05;;;-0.49;86.10
42003;BME280;27693;50.506;30.832;2023-01-24T06:51:49;101843.70;;;-0.40;86.28
42003;BME280;27693;50.506;30.832;2023-01-24T06:52:52;101846.42;;;-0.36;86.61
42003;BME280;27693;50.506;30.832;2023-01-24T06:55:45;101840.96;;;-0.21;86.64
42003;BME280;27693;50.506;30.832;2023-01-24T06:56:48;101837.75;;;-0.13;85.81
42003;BME280;27693;50.506;30.832;2023-01-24T06:57:55;101840.27;;;-0.15;85.40
42003;BME280;27693;50.506;30.832;2023-01-24T06:58:58;101835.73;;;-0.24;85.06
42003;BME280;27693;50.506;30.832;2023-01-24T07:00:03;101838.66;;;-0.39;84.72
42003;BME280;27693;50.506;30.832;2023-01-24T07:01:06;101841.67;;;-0.51;84.76
42003;BME280;27693;50.506;30.832;2023-01-24T07:02:12;101846.46;;;-0.60;85.51
42003;BME280;27693;50.506;30.832;2023-01-24T07:03:14;101844.63;;;-0.64;85.96
42003;BME280;27693;50.506;30.832;2023-01-24T07:04:16;101844.86;;;-0.82;85.76
42003;BME280;27693;50.506;30.832;2023-01-24T07:05:19;101850.95;;;-0.78;86.55
42003;BME280;27693;50.506;30.832;2023-01-24T07:06:22;101844.21;;;-0.76;86.74
42003;BME280;27693;50.506;30.832;2023-01-24T07:07:25;101842.77;;;-0.68;87.12
42003;BME280;27693;50.506;30.832;2023-01-24T07:08:29;101846.09;;;-0.71;86.78
42003;BME280;27693;50.506;30.832;2023-01-24T07:09:31;101845.92;;;-0.75;86.71
42003;BME280;27693;50.506;30.832;2023-01-24T07:10:33;101843.87;;;-0.86;86.36
42003;BME280;27693;50.506;30.832;2023-01-24T07:11:35;101849.53;;;-0.70;86.51
42003;BME280;27693;50.506;30.832;2023-01-24T07:12:38;101848.33;;;-0.56;86.91
42003;BME280;27693;50.506;30.832;2023-01-24T07:13:43;101846.78;;;-0.51;87.32
42003;BME280;27693;50.506;30.832;2023-01-24T07:14:45;101854.30;;;-0.55;86.97
42003;BME280;27693;50.506;30.832;2023-01-24T07:15:47;101854.05;;;-0.63;86.57
42003;BME280;27693;50.506;30.832;2023-01-24T07:16:50;101852.78;;;-0.74;86.06
42003;BME280;27693;50.506;30.832;2023-01-24T07:17:53;101850.83;;;-0.82;86.38
42003;BME280;27693;50.506;30.832;2023-01-24T07:18:56;101844.09;;;-1.04;86.30
42003;BME280;27693;50.506;30.832;2023-01-24T07:19:59;101862.75;;;-1.29;86.98
42003;BME280;27693;50.506;30.832;2023-01-24T07:21:06;101853.20;;;-1.35;87.62
42003;BME280;27693;50.506;30.832;2023-01-24T07:22:11;101859.64;;;-1.45;87.92
42003;BME280;27693;50.506;30.832;2023-01-24T07:23:25;101851.39;;;-1.60;88.48
42003;BME280;27693;50.506;30.832;2023-01-24T07:24:30;101864.25;;;-1.80;88.72
42003;BME280;27693;50.506;30.832;2023-01-24T07:25:32;101864.02;;;-1.86;89.13
42003;BME280;27693;50.506;30.832;2023-01-24T07:26:38;101860.46;;;-1.89;89.75
42003;BME280;27693;50.506;30.832;2023-01-24T07:27:42;101869.35;;;-1.80;90.30
42003;BME280;27693;50.506;30.832;2023-01-24T07:28:46;101868.55;;;-1.79;90.40
42003;BME280;27693;50.506;30.832;2023-01-24T07:29:51;101866.33;;;-1.69;90.55
42003;BME280;27693;50.506;30.832;2023-01-24T07:30:54;101869.69;;;-1.70;90.32
42003;BME280;27693;50.506;30.832;2023-01-24T07:31:56;101867.47;;;-1.84;90.12
42003;BME280;27693;50.506;30.832;2023-01-24T07:32:58;101862.88;;;-1.93;90.19
42003;BME280;27693;50.506;30.832;2023-01-24T07:34:01;101859.09;;;-2.02;90.36
42003;BME280;27693;50.506;30.832;2023-01-24T07:35:05;101865.23;;;-1.97;90.77
42003;BME280;27693;50.506;30.832;2023-01-24T07:36:13;101866.56;;;-1.86;91.23
42003;BME280;27693;50.506;30.832;2023-01-24T07:37:15;101872.33;;;-1.69;91.60
42003;BME280;27693;50.506;30.832;2023-01-24T07:38:19;101859.28;;;-1.54;91.96
42003;BME280;27693;50.506;30.832;2023-01-24T07:39:22;101863.81;;;-1.47;91.22
42003;BME280;27693;50.506;30.832;2023-01-24T07:40:25;101865.88;;;-1.36;91.29
42003;BME280;27693;50.506;30.832;2023-01-24T07:41:27;101861.58;;;-1.15;90.18
42003;BME280;27693;50.506;30.832;2023-01-24T07:42:34;101861.58;;;-1.15;90.18
42003;BME280;27693;50.506;30.832;2023-01-24T07:43:38;101862.02;;;-1.02;90.41
42003;BME280;27693;50.506;30.832;2023-01-24T07:44:40;101856.53;;;-0.89;90.24
42003;BME280;27693;50.506;30.832;2023-01-24T07:45:45;101861.77;;;-0.86;89.31
42003;BME280;27693;50.506;30.832;2023-01-24T07:46:48;101853.16;;;-0.88;88.68
42003;BME280;27693;50.506;30.832;2023-01-24T07:47:55;101851.28;;;-0.93;87.87
42003;BME280;27693;50.506;30.832;2023-01-24T07:48:58;101859.42;;;-0.79;88.23
42003;BME280;27693;50.506;30.832;2023-01-24T07:50:00;101863.22;;;-0.68;87.97
42003;BME280;27693;50.506;30.832;2023-01-24T12:05:00;101723.43;;;-1.21;92.02
42003;BME280;27693;50.506;30.832;2023-01-24T12:15:09;101721.98;;;-0.35;90.98
42003;BME280;27693;50.506;30.832;2023-01-24T12:20:24;101720.77;;;0.10;87.65
42003;BME280;27693;50.506;30.832;2023-01-24T12:21:29;101711.53;;;0.15;87.18
42003;BME280;27693;50.506;30.832;2023-01-24T12:22:33;101719.52;;;0.26;86.70
42003;BME280;27693;50.506;30.832;2023-01-24T12:25:22;101716.21;;;0.30;85.48
42003;BME280;27693;50.506;30.832;2023-01-24T12:26:36;101720.17;;;0.19;85.69
42003;BME280;27693;50.506;30.832;2023-01-24T12:27:36;101721.13;;;0.22;87.35
42003;BME280;27693;50.506;30.832;2023-01-24T12:28:43;101720.34;;;-0.04;85.95
42003;BME280;27693;50.506;30.832;2023-01-24T12:30:01;101718.71;;;-0.02;86.68
42003;BME280;27693;50.506;30.832;2023-01-24T12:31:05;101716.19;;;-0.01;87.71
42003;BME280;27693;50.506;30.832;2023-01-24T12:32:31;101717.16;;;0.03;87.81
42003;BME280;27693;50.506;30.832;2023-01-24T12:36:15;101723.36;;;-0.18;88.35
42003;BME280;27693;50.506;30.832;2023-01-24T12:37:27;101722.62;;;-0.13;88.65
42003;BME280;27693;50.506;30.832;2023-01-24T12:38:34;101727.31;;;0.00;88.63
42003;BME280;27693;50.506;30.832;2023-01-24T12:39:43;101727.95;;;-0.07;87.48
42003;BME280;27693;50.506;30.832;2023-01-24T12:42:18;101730.11;;;-0.20;86.55
42003;BME280;27693;50.506;30.832;2023-01-24T12:43:34;101726.83;;;-0.70;85.38
42003;BME280;27693;50.506;30.832;2023-01-24T12:44:52;101732.41;;;-0.82;86.82
42003;BME280;27693;50.506;30.832;2023-01-24T12:46:11;101726.88;;;-0.94;87.26
42003;BME280;27693;50.506;30.832;2023-01-24T12:47:25;101728.14;;;-0.82;88.60
42003;BME280;27693;50.506;30.832;2023-01-24T12:52:41;101732.36;;;-0.84;90.08
42003;BME280;27693;50.506;30.832;2023-01-24T12:53:51;101735.61;;;-0.88;90.25
42003;BME280;27693;50.506;30.832;2023-01-24T12:56:17;101733.62;;;-0.97;90.38
42003;BME280;27693;50.506;30.832;2023-01-24T12:57:29;101737.82;;;-1.23;90.20
42003;BME280;27693;50.506;30.832;2023-01-24T12:58:36;101731.60;;;-1.31;90.52
42003;BME280;27693;50.506;30.832;2023-01-24T12:59:41;101747.90;;;-1.27;91.15
42003;BME280;27693;50.506;30.832;2023-01-24T13:02:24;101743.22;;;-1.39;91.17
42003;BME280;27693;50.506;30.832;2023-01-24T13:09:02;101737.30;;;-1.38;90.51
42003;BME280;27693;50.506;30.832;2023-01-24T13:11:27;101733.64;;;-1.21;90.53
42003;BME280;27693;50.506;30.832;2023-01-24T13:12:31;101744.28;;;-1.08;90.50
42003;BME280;27693;50.506;30.832;2023-01-24T13:13:39;101730.00;;;-1.03;89.82
42003;BME280;27693;50.506;30.832;2023-01-24T13:14:52;101739.38;;;-1.02;89.36
42003;BME280;27693;50.506;30.832;2023-01-24T13:16:06;101738.64;;;-1.00;89.01
42003;BME280;27693;50.506;30.832;2023-01-24T13:21:35;101739.89;;;-1.13;88.11
42003;BME280;27693;50.506;30.832;2023-01-24T13:22:43;101741.27;;;-1.22;88.92
42003;BME280;27693;50.506;30.832;2023-01-24T13:27:52;101741.59;;;-1.37;90.90
42003;BME280;27693;50.506;30.832;2023-01-24T13:30:47;101736.48;;;-1.37;92.58
42003;BME280;27693;50.506;30.832;2023-01-24T13:33:11;101735.13;;;-1.52;93.08
42003;BME280;27693;50.506;30.832;2023-01-24T13:34:15;101734.19;;;-1.54;93.38
42003;BME280;27693;50.506;30.832;2023-01-24T13:35:29;101733.94;;;-1.37;94.01
42003;BME280;27693;50.506;30.832;2023-01-24T13:36:34;101738.48;;;-1.53;93.86
42003;BME280;27693;50.506;30.832;2023-01-24T13:37:37;101727.25;;;-1.58;93.37
42003;BME280;27693;50.506;30.832;2023-01-24T13:38:42;101735.13;;;-1.52;94.04
42003;BME280;27693;50.506;30.832;2023-01-24T13:39:46;101733.42;;;-1.51;94.07
42003;BME280;27693;50.506;30.832;2023-01-24T13:41:04;101736.37;;;-1.40;94.29
42003;BME280;27693;50.506;30.832;2023-01-24T13:42:21;101731.14;;;-1.43;93.94
42003;BME280;27693;50.506;30.832;2023-01-24T13:47:48;101722.45;;;-1.49;94.11
42003;BME280;27693;50.506;30.832;2023-01-24T13:48:55;101718.45;;;-1.42;94.45
42003;BME280;27693;50.506;30.832;2023-01-24T13:52:35;101717.94;;;-1.56;93.92
42003;BME280;27693;50.506;30.832;2023-01-24T13:55:03;101720.18;;;-1.65;94.24
42003;BME280;27693;50.506;30.832;2023-01-24T13:56:09;101719.63;;;-1.56;94.52
42003;BME280;27693;50.506;30.832;2023-01-24T13:57:26;101721.16;;;-1.62;94.92
42003;BME280;27693;50.506;30.832;2023-01-24T13:58:30;101703.43;;;-1.57;95.25